createdAt,value
2023-01-22T00:01:12.333Z,-0.51
2023-01-22T00:03:41.048Z,-0.50
2023-01-22T00:06:10.368Z,-0.50
2023-01-22T00:08:37.784Z,-0.49
2023-01-22T00:11:05.104Z,-0.50
2023-01-22T00:13:32.535Z,-0.49
2023-01-22T00:16:00.167Z,-0.49
2023-01-22T00:18:27.349Z,-0.49
2023-01-22T00:20:55.182Z,-0.49
2023-01-22T00:23:23.364Z,-0.49
2023-01-22T00:25:59.999Z,-0.49
2023-01-22T00:28:27.054Z,-0.49
2023-01-22T00:31:04.078Z,-0.49
2023-01-22T00:33:32.492Z,-0.49
2023-01-22T00:36:08.548Z,-0.49
2023-01-22T00:38:36.852Z,-0.49
2023-01-22T00:41:06.991Z,-0.48
2023-01-22T00:43:35.544Z,-0.48
2023-01-22T00:46:02.510Z,-0.49
2023-01-22T00:48:29.836Z,-0.48
2023-01-22T00:50:56.967Z,-0.48
2023-01-22T00:53:24.097Z,-0.47
2023-01-22T00:55:59.823Z,-0.48
2023-01-22T00:58:28.783Z,-0.47
2023-01-22T01:00:56.246Z,-0.47
2023-01-22T01:03:32.086Z,-0.47
2023-01-22T01:06:07.933Z,-0.46
2023-01-22T01:08:42.087Z,-0.46
2023-01-22T01:11:14.890Z,-0.45
2023-01-22T01:13:43.344Z,-0.46
2023-01-22T01:16:29.723Z,-0.47
2023-01-22T01:19:09.988Z,-0.45
2023-01-22T01:21:37.177Z,-0.45
2023-01-22T01:24:04.833Z,-0.46
2023-01-22T01:26:33.394Z,-0.45
2023-01-22T01:29:00.351Z,-0.44
2023-01-22T01:31:27.417Z,-0.45
2023-01-22T01:33:57.666Z,-0.44
2023-01-22T01:36:46.268Z,-0.43
2023-01-22T01:39:12.624Z,-0.42
2023-01-22T01:41:39.552Z,-0.42
2023-01-22T01:44:10.317Z,-0.42
2023-01-22T01:46:57.491Z,-0.41
2023-01-22T01:49:48.730Z,-0.40
2023-01-22T01:52:18.321Z,-0.40
2023-01-22T01:54:52.547Z,-0.39
2023-01-22T01:57:33.429Z,-0.39
2023-01-22T02:00:02.603Z,-0.39
2023-01-22T02:02:41.428Z,-0.38
2023-01-22T02:05:10.337Z,-0.37
2023-01-22T02:07:37.557Z,-0.36
2023-01-22T02:10:06.264Z,-0.38
2023-01-22T02:12:36.285Z,-0.37
2023-01-22T02:15:05.311Z,-0.37
2023-01-22T02:17:32.894Z,-0.37
2023-01-22T02:19:59.905Z,-0.37
2023-01-22T02:22:33.398Z,-0.35
2023-01-22T02:25:01.481Z,-0.35
2023-01-22T02:27:28.415Z,-0.35
2023-01-22T02:29:55.505Z,-0.34
2023-01-22T02:32:22.531Z,-0.33
2023-01-22T02:34:49.578Z,-0.33
2023-01-22T02:37:17.349Z,-0.32
2023-01-22T02:39:44.325Z,-0.32
2023-01-22T02:42:12.247Z,-0.32
2023-01-22T02:44:41.009Z,-0.33
2023-01-22T02:47:07.941Z,-0.31
2023-01-22T02:49:34.886Z,-0.31
2023-01-22T02:52:01.897Z,-0.31
2023-01-22T02:54:30.254Z,-0.32
2023-01-22T02:56:57.206Z,-0.31
2023-01-22T02:59:24.499Z,-0.31
2023-01-22T03:01:51.770Z,-0.31
2023-01-22T03:04:18.737Z,-0.31
2023-01-22T03:06:47.048Z,-0.30
2023-01-22T03:09:17.531Z,-0.31
2023-01-22T03:11:46.913Z,-0.30
2023-01-22T03:14:43.171Z,-0.31
2023-01-22T03:17:29.401Z,-0.30
2023-01-22T03:20:17.701Z,-0.31
2023-01-22T03:22:44.814Z,-0.31
2023-01-22T03:25:11.755Z,-0.31
2023-01-22T03:27:58.709Z,-0.31
2023-01-22T03:30:26.134Z,-0.31
2023-01-22T03:32:53.037Z,-0.31
2023-01-22T03:35:20.096Z,-0.32
2023-01-22T03:38:02.134Z,-0.31
2023-01-22T03:40:29.079Z,-0.30
2023-01-22T03:42:56.526Z,-0.30
2023-01-22T03:45:23.531Z,-0.31
2023-01-22T03:47:53.139Z,-0.30
2023-01-22T03:50:26.319Z,-0.30
2023-01-22T03:52:55.356Z,-0.29
2023-01-22T03:55:22.279Z,-0.29
2023-01-22T03:57:49.376Z,-0.29
2023-01-22T04:00:18.274Z,-0.28
2023-01-22T04:02:45.549Z,-0.28
2023-01-22T04:05:20.380Z,-0.28
2023-01-22T04:07:50.331Z,-0.27
2023-01-22T04:10:19.880Z,-0.26
2023-01-22T04:12:47.773Z,-0.25
2023-01-22T04:15:17.469Z,-0.25
2023-01-22T04:17:45.714Z,-0.25
2023-01-22T04:20:32.881Z,-0.24
2023-01-22T04:23:21.911Z,-0.23
2023-01-22T04:25:52.055Z,-0.23
2023-01-22T04:28:20.289Z,-0.23
2023-01-22T04:30:54.722Z,-0.23
2023-01-22T04:33:37.648Z,-0.23
2023-01-22T04:36:10.568Z,-0.22
2023-01-22T04:38:37.865Z,-0.20
2023-01-22T04:41:04.890Z,-0.22
2023-01-22T04:43:32.991Z,-0.22
2023-01-22T04:45:59.948Z,-0.20
2023-01-22T04:48:30.896Z,-0.20
2023-01-22T04:50:57.874Z,-0.20
2023-01-22T04:53:28.283Z,-0.20
2023-01-22T04:55:55.649Z,-0.20
2023-01-22T04:58:22.597Z,-0.18
2023-01-22T05:00:51.053Z,-0.18
2023-01-22T05:03:18.094Z,-0.18
2023-01-22T05:05:45.036Z,-0.17
2023-01-22T05:08:12.436Z,-0.17
2023-01-22T05:10:39.415Z,-0.16
2023-01-22T05:13:09.000Z,-0.16
2023-01-22T05:15:37.230Z,-0.14
2023-01-22T05:18:08.644Z,-0.15
2023-01-22T05:20:37.527Z,-0.14
2023-01-22T05:23:04.697Z,-0.14
2023-01-22T05:25:32.120Z,-0.13
2023-01-22T05:27:59.615Z,-0.12
2023-01-22T05:30:49.942Z,-0.13
2023-01-22T05:33:35.517Z,-0.13
2023-01-22T05:36:03.936Z,-0.13
2023-01-22T05:38:31.953Z,-0.12
2023-01-22T05:40:58.988Z,-0.12
2023-01-22T05:43:28.466Z,-0.12
2023-01-22T05:46:04.566Z,-0.12
2023-01-22T05:48:46.682Z,-0.11
2023-01-22T05:51:18.406Z,-0.12
2023-01-22T05:53:45.987Z,-0.11
2023-01-22T05:56:14.066Z,-0.11
2023-01-22T05:58:41.006Z,-0.11
2023-01-22T06:01:07.991Z,-0.10
2023-01-22T06:03:40.897Z,-0.10
2023-01-22T06:06:11.587Z,-0.10
2023-01-22T06:08:39.327Z,-0.10
2023-01-22T06:11:15.725Z,-0.10
2023-01-22T06:13:46.196Z,-0.09
2023-01-22T06:16:21.083Z,-0.08
2023-01-22T06:19:10.385Z,-0.09
2023-01-22T06:21:43.563Z,-0.09
2023-01-22T06:24:11.264Z,-0.09
2023-01-22T06:26:38.373Z,-0.08
2023-01-22T06:29:07.772Z,-0.08
2023-01-22T06:31:35.694Z,-0.09
2023-01-22T06:34:06.709Z,-0.08
2023-01-22T06:36:33.732Z,-0.08
2023-01-22T06:39:00.930Z,-0.09
2023-01-22T06:41:37.673Z,-0.08
2023-01-22T06:44:07.671Z,-0.09
2023-01-22T06:46:34.712Z,-0.09
2023-01-22T06:49:10.639Z,-0.08
2023-01-22T06:51:39.841Z,-0.09
2023-01-22T06:54:07.059Z,-0.08
2023-01-22T06:56:34.067Z,-0.09
2023-01-22T06:59:03.426Z,-0.08
2023-01-22T07:01:30.665Z,-0.09
2023-01-22T07:03:57.593Z,-0.09
2023-01-22T07:06:24.552Z,-0.08
2023-01-22T07:08:52.042Z,-0.10
2023-01-22T07:11:19.001Z,-0.08
2023-01-22T07:13:45.905Z,-0.10
2023-01-22T07:16:13.082Z,-0.10
2023-01-22T07:18:40.047Z,-0.08
2023-01-22T07:21:07.088Z,-0.09
2023-01-22T07:23:34.035Z,-0.08
2023-01-22T07:26:00.967Z,-0.08
2023-01-22T07:28:27.983Z,-0.07
2023-01-22T07:30:56.451Z,-0.08
2023-01-22T07:33:23.534Z,-0.07
2023-01-22T07:35:57.089Z,-0.07
2023-01-22T07:38:27.288Z,-0.06
2023-01-22T07:40:55.611Z,-0.06
2023-01-22T07:43:22.544Z,-0.05
2023-01-22T07:45:49.470Z,-0.04
2023-01-22T07:48:16.535Z,-0.04
2023-01-22T07:50:43.523Z,-0.02
2023-01-22T07:53:11.714Z,-0.01
2023-01-22T07:55:40.142Z,0.00
2023-01-22T07:58:07.904Z,0.03
2023-01-22T08:00:35.817Z,0.05
2023-01-22T08:03:10.363Z,0.06
2023-01-22T08:05:39.937Z,0.11
2023-01-22T08:08:18.851Z,0.12
2023-01-22T08:10:45.828Z,0.15
2023-01-22T08:13:12.896Z,0.17
2023-01-22T08:15:41.294Z,0.20
2023-01-22T08:18:10.300Z,0.22
2023-01-22T08:20:37.370Z,0.25
2023-01-22T08:23:04.312Z,0.28
2023-01-22T08:25:31.221Z,0.29
2023-01-22T08:28:03.400Z,0.32
2023-01-22T08:30:31.098Z,0.35
2023-01-22T08:32:58.082Z,0.38
2023-01-22T08:35:25.271Z,0.41
2023-01-22T08:37:52.187Z,0.42
2023-01-22T08:40:19.426Z,0.45
2023-01-22T08:42:52.013Z,0.45
2023-01-22T08:45:19.133Z,0.47
2023-01-22T08:47:46.123Z,0.49
2023-01-22T08:50:13.641Z,0.49
2023-01-22T08:52:40.640Z,0.51
2023-01-22T08:55:09.893Z,0.52
2023-01-22T08:57:37.526Z,0.52
2023-01-22T09:00:06.239Z,0.55
2023-01-22T09:02:33.093Z,0.56
2023-01-22T09:05:00.088Z,0.58
2023-01-22T09:07:26.999Z,0.59
2023-01-22T09:09:53.938Z,0.61
2023-01-22T09:12:20.899Z,0.61
2023-01-22T09:14:48.219Z,0.64
2023-01-22T09:17:15.142Z,0.63
2023-01-22T09:19:42.039Z,0.63
2023-01-22T09:22:08.948Z,0.65
2023-01-22T09:24:35.853Z,0.65
2023-01-22T09:27:02.825Z,0.65
2023-01-22T09:29:29.881Z,0.66
2023-01-22T09:31:57.078Z,0.66
2023-01-22T09:34:24.090Z,0.66
2023-01-22T09:36:51.083Z,0.68
2023-01-22T09:39:18.469Z,0.69
2023-01-22T09:41:55.834Z,0.71
2023-01-22T09:44:44.516Z,0.72
2023-01-22T09:47:26.411Z,0.73
2023-01-22T09:50:22.016Z,0.75
2023-01-22T09:52:52.651Z,0.76
2023-01-22T09:55:23.880Z,0.78
2023-01-22T09:57:54.992Z,0.79
2023-01-22T10:00:31.347Z,0.81
2023-01-22T10:03:04.818Z,0.81
2023-01-22T10:05:41.152Z,0.82
2023-01-22T10:08:26.066Z,0.86
2023-01-22T10:10:53.483Z,0.88
2023-01-22T10:13:37.133Z,0.91
2023-01-22T10:16:05.657Z,0.92
2023-01-22T10:19:00.517Z,0.97
2023-01-22T10:21:32.004Z,0.98
2023-01-22T10:23:59.675Z,1.02
2023-01-22T10:26:42.880Z,1.03
2023-01-22T10:29:29.384Z,1.05
2023-01-22T10:32:01.928Z,1.07
2023-01-22T10:34:36.649Z,1.07
2023-01-22T10:37:17.771Z,1.08
2023-01-22T10:39:47.949Z,1.08
2023-01-22T10:42:27.618Z,1.11
2023-01-22T10:45:14.655Z,1.12
2023-01-22T10:47:41.643Z,1.13
2023-01-22T10:50:16.797Z,1.15
2023-01-22T10:52:51.706Z,1.16
2023-01-22T10:55:29.824Z,1.18
2023-01-22T10:58:14.027Z,1.21
2023-01-22T11:00:51.413Z,1.22
2023-01-22T11:03:23.533Z,1.26
2023-01-22T11:06:06.186Z,1.28
2023-01-22T11:09:12.164Z,1.33
2023-01-22T11:11:48.349Z,1.34
2023-01-22T11:14:32.675Z,1.39
2023-01-22T11:17:16.344Z,1.41
2023-01-22T11:20:00.493Z,1.43
2023-01-22T11:22:43.455Z,1.44
2023-01-22T11:25:11.529Z,1.45
2023-01-22T11:28:02.387Z,1.47
2023-01-22T11:31:14.564Z,1.48
2023-01-22T11:33:48.267Z,1.48
2023-01-22T11:36:45.596Z,1.49
2023-01-22T11:39:58.029Z,1.50
2023-01-22T11:42:37.082Z,1.48
2023-01-22T11:45:47.413Z,1.47
2023-01-22T11:48:46.363Z,1.46
2023-01-22T11:51:39.858Z,1.44
2023-01-22T11:54:33.829Z,1.41
2023-01-22T11:57:37.403Z,1.38
2023-01-22T12:00:51.445Z,1.36
2023-01-22T12:04:04.288Z,1.35
2023-01-22T12:06:58.723Z,1.34
2023-01-22T12:10:31.075Z,1.33
2023-01-22T12:13:43.123Z,1.33
2023-01-22T12:16:44.491Z,1.32
2023-01-22T12:20:03.590Z,1.31
2023-01-22T12:22:50.414Z,1.30
2023-01-22T12:25:34.426Z,1.30
2023-01-22T12:28:13.841Z,1.29
2023-01-22T12:31:26.186Z,1.29
2023-01-22T12:33:53.217Z,1.28
2023-01-22T12:36:24.515Z,1.28
2023-01-22T12:39:06.793Z,1.29
2023-01-22T12:42:02.036Z,1.31
2023-01-22T12:44:55.151Z,1.33
2023-01-22T12:47:48.687Z,1.35
2023-01-22T12:50:23.325Z,1.39
2023-01-22T12:53:06.190Z,1.43
2023-01-22T12:55:38.112Z,1.45
2023-01-22T12:58:17.752Z,1.48
2023-01-22T13:00:44.803Z,1.50
2023-01-22T13:03:32.040Z,1.52
2023-01-22T13:06:02.403Z,1.53
2023-01-22T13:08:41.573Z,1.54
2023-01-22T13:11:13.223Z,1.54
2023-01-22T13:13:56.744Z,1.55
2023-01-22T13:16:37.375Z,1.56
2023-01-22T13:19:27.523Z,1.57
2023-01-22T13:22:00.170Z,1.61
2023-01-22T13:24:27.152Z,1.67
2023-01-22T13:27:01.619Z,1.72
2023-01-22T13:29:39.213Z,1.78
2023-01-22T13:32:22.742Z,1.81
2023-01-22T13:34:49.747Z,1.82
2023-01-22T13:37:28.131Z,1.84
2023-01-22T13:39:55.060Z,1.84
2023-01-22T13:42:24.757Z,1.83
2023-01-22T13:44:52.290Z,1.82
2023-01-22T13:47:33.087Z,1.81
2023-01-22T13:50:01.295Z,1.79
2023-01-22T13:52:29.257Z,1.77
2023-01-22T13:55:15.801Z,1.76
2023-01-22T13:57:52.438Z,1.74
2023-01-22T14:00:34.083Z,1.74
2023-01-22T14:03:01.888Z,1.71
2023-01-22T14:05:34.032Z,1.69
2023-01-22T14:08:11.016Z,1.68
2023-01-22T14:10:41.226Z,1.65
2023-01-22T14:13:12.119Z,1.63
2023-01-22T14:15:40.939Z,1.62
2023-01-22T14:18:17.203Z,1.60
2023-01-22T14:20:47.172Z,1.59
2023-01-22T14:23:15.434Z,1.57
2023-01-22T14:25:53.036Z,1.57
2023-01-22T14:28:22.529Z,1.56
2023-01-22T14:30:50.466Z,1.56
2023-01-22T14:33:33.178Z,1.56
2023-01-22T14:36:01.101Z,1.55
2023-01-22T14:38:28.645Z,1.55
2023-01-22T14:40:56.615Z,1.54
2023-01-22T14:43:23.631Z,1.53
2023-01-22T14:45:51.588Z,1.52
2023-01-22T14:48:20.443Z,1.51
2023-01-22T14:50:48.899Z,1.50
2023-01-22T14:53:17.092Z,1.49
2023-01-22T14:55:45.453Z,1.47
2023-01-22T14:58:12.530Z,1.47
2023-01-22T15:00:39.906Z,1.45
2023-01-22T15:03:06.990Z,1.44
2023-01-22T15:05:35.759Z,1.43
2023-01-22T15:08:03.142Z,1.42
2023-01-22T15:10:30.074Z,1.41
2023-01-22T15:12:57.095Z,1.38
2023-01-22T15:15:26.828Z,1.36
2023-01-22T15:17:57.043Z,1.34
2023-01-22T15:20:24.668Z,1.33
2023-01-22T15:22:51.926Z,1.31
2023-01-22T15:25:18.939Z,1.30
2023-01-22T15:27:46.336Z,1.29
2023-01-22T15:30:14.268Z,1.27
2023-01-22T15:32:41.248Z,1.25
2023-01-22T15:35:08.859Z,1.23
2023-01-22T15:37:36.123Z,1.22
2023-01-22T15:40:03.793Z,1.20
2023-01-22T15:42:30.759Z,1.19
2023-01-22T15:44:57.690Z,1.17
2023-01-22T15:47:24.704Z,1.16
2023-01-22T15:49:51.621Z,1.15
2023-01-22T15:52:18.944Z,1.14
2023-01-22T15:54:46.274Z,1.13
2023-01-22T15:57:14.134Z,1.11
2023-01-22T15:59:41.962Z,1.09
2023-01-22T16:02:12.320Z,1.09
2023-01-22T16:04:39.361Z,1.07
2023-01-22T16:07:06.311Z,1.07
2023-01-22T16:09:34.556Z,1.05
2023-01-22T16:12:01.541Z,1.04
2023-01-22T16:14:29.131Z,1.03
2023-01-22T16:16:56.145Z,1.03
2023-01-22T16:19:23.128Z,1.01
2023-01-22T16:21:52.213Z,1.01
2023-01-22T16:24:19.249Z,1.00
2023-01-22T16:26:46.186Z,0.98
2023-01-22T16:29:13.230Z,0.98
2023-01-22T16:31:40.173Z,0.98
2023-01-22T16:34:17.747Z,0.97
2023-01-22T16:36:45.242Z,0.95
2023-01-22T16:39:23.536Z,0.93
2023-01-22T16:41:52.168Z,0.93
2023-01-22T16:44:26.251Z,0.91
2023-01-22T16:46:57.452Z,0.92
2023-01-22T16:49:27.573Z,0.91
2023-01-22T16:51:58.074Z,0.90
2023-01-22T16:54:31.571Z,0.89
2023-01-22T16:57:09.736Z,0.89
2023-01-22T16:59:37.586Z,0.88
2023-01-22T17:02:07.991Z,0.88
2023-01-22T17:04:34.936Z,0.87
2023-01-22T17:07:01.824Z,0.88
2023-01-22T17:09:32.261Z,0.87
2023-01-22T17:12:05.672Z,0.87
2023-01-22T17:14:36.996Z,0.87
2023-01-22T17:17:07.006Z,0.87
2023-01-22T17:19:34.400Z,0.87
2023-01-22T17:22:01.828Z,0.87
2023-01-22T17:24:30.714Z,0.86
2023-01-22T17:26:58.191Z,0.87
2023-01-22T17:29:25.951Z,0.88
2023-01-22T17:31:53.458Z,0.87
2023-01-22T17:34:20.525Z,0.86
2023-01-22T17:36:50.469Z,0.86
2023-01-22T17:39:19.820Z,0.86
2023-01-22T17:41:47.021Z,0.85
2023-01-22T17:44:14.013Z,0.82
2023-01-22T17:46:41.241Z,0.84
2023-01-22T17:49:11.038Z,0.84
2023-01-22T17:51:38.100Z,0.84
2023-01-22T17:54:05.968Z,0.82
2023-01-22T17:56:36.439Z,0.81
2023-01-22T17:59:06.677Z,0.81
2023-01-22T18:01:36.568Z,0.81
2023-01-22T18:04:09.623Z,0.79
2023-01-22T18:06:38.433Z,0.78
2023-01-22T18:09:06.723Z,0.77
2023-01-22T18:11:35.048Z,0.77
2023-01-22T18:14:06.190Z,0.77
2023-01-22T18:16:35.453Z,0.75
2023-01-22T18:19:05.293Z,0.74
2023-01-22T18:21:32.328Z,0.73
2023-01-22T18:24:01.725Z,0.72
2023-01-22T18:26:29.179Z,0.71
2023-01-22T18:28:58.435Z,0.70
2023-01-22T18:31:28.026Z,0.69
2023-01-22T18:34:01.247Z,0.69
2023-01-22T18:36:33.952Z,0.70
2023-01-22T18:39:07.140Z,0.69
2023-01-22T18:41:34.559Z,0.69
2023-01-22T18:44:02.626Z,0.68
2023-01-22T18:46:36.731Z,0.67
2023-01-22T18:49:16.186Z,0.66
2023-01-22T18:51:45.084Z,0.67
2023-01-22T18:54:12.588Z,0.66
2023-01-22T18:56:40.315Z,0.65
2023-01-22T18:59:07.942Z,0.65
2023-01-22T19:01:38.510Z,0.63
2023-01-22T19:04:08.671Z,0.64
2023-01-22T19:06:38.551Z,0.63
2023-01-22T19:09:14.113Z,0.63
2023-01-22T19:11:46.985Z,0.62
2023-01-22T19:14:17.498Z,0.61
2023-01-22T19:16:48.337Z,0.61
2023-01-22T19:19:17.242Z,0.61
2023-01-22T19:21:47.130Z,0.60
2023-01-22T19:24:17.433Z,0.60
2023-01-22T19:26:46.681Z,0.60
2023-01-22T19:29:17.580Z,0.59
2023-01-22T19:31:48.357Z,0.59
2023-01-22T19:34:23.037Z,0.59
2023-01-22T19:36:56.599Z,0.57
2023-01-22T19:39:28.143Z,0.57
2023-01-22T19:41:56.557Z,0.58
2023-01-22T19:44:23.528Z,0.57
2023-01-22T19:46:50.493Z,0.57
2023-01-22T19:49:17.606Z,0.57
2023-01-22T19:51:44.574Z,0.57
2023-01-22T19:54:11.951Z,0.57
2023-01-22T19:56:41.339Z,0.57
2023-01-22T19:59:14.451Z,0.57
2023-01-22T20:01:42.812Z,0.57
2023-01-22T20:04:18.047Z,0.56
2023-01-22T20:06:45.780Z,0.57
2023-01-22T20:09:13.296Z,0.56
2023-01-22T20:11:40.623Z,0.56
2023-01-22T20:14:07.525Z,0.56
2023-01-22T20:16:34.549Z,0.57
2023-01-22T20:19:01.602Z,0.58
2023-01-22T20:21:30.026Z,0.56
2023-01-22T20:23:57.099Z,0.57
2023-01-22T20:26:24.189Z,0.57
2023-01-22T20:28:51.712Z,0.57
2023-01-22T20:31:23.367Z,0.57
2023-01-22T20:33:56.919Z,0.57
2023-01-22T20:36:27.653Z,0.57
2023-01-22T20:38:55.209Z,0.57
2023-01-22T20:41:27.177Z,0.56
2023-01-22T20:43:54.592Z,0.57
2023-01-22T20:46:27.147Z,0.56
2023-01-22T20:48:58.549Z,0.57
2023-01-22T20:51:28.478Z,0.56
2023-01-22T20:53:57.619Z,0.57
2023-01-22T20:56:30.267Z,0.56
2023-01-22T20:59:07.886Z,0.57
2023-01-22T21:01:35.491Z,0.54
2023-01-22T21:04:03.224Z,0.56
2023-01-22T21:06:34.067Z,0.56
2023-01-22T21:09:01.600Z,0.56
2023-01-22T21:11:30.952Z,0.56
2023-01-22T21:14:00.465Z,0.57
2023-01-22T21:16:34.224Z,0.57
2023-01-22T21:19:16.617Z,0.58
2023-01-22T21:21:45.201Z,0.58
2023-01-22T21:24:12.881Z,0.58
2023-01-22T21:26:40.073Z,0.58
2023-01-22T21:29:13.829Z,0.58
2023-01-22T21:31:41.076Z,0.58
2023-01-22T21:34:10.395Z,0.58
2023-01-22T21:36:41.343Z,0.58
2023-01-22T21:39:16.819Z,0.59
2023-01-22T21:41:44.600Z,0.59
2023-01-22T21:44:33.230Z,0.59
2023-01-22T21:47:01.029Z,0.59
2023-01-22T21:49:29.012Z,0.59
2023-01-22T21:52:02.229Z,0.58
2023-01-22T21:54:35.240Z,0.57
2023-01-22T21:57:03.348Z,0.58
2023-01-22T21:59:30.366Z,0.56
2023-01-22T22:01:57.670Z,0.56
2023-01-22T22:04:27.452Z,0.56
2023-01-22T22:06:55.013Z,0.55
2023-01-22T22:09:25.649Z,0.55
2023-01-22T22:11:59.434Z,0.54
2023-01-22T22:14:26.778Z,0.53
2023-01-22T22:16:54.586Z,0.54
2023-01-22T22:19:23.608Z,0.54
2023-01-22T22:21:50.996Z,0.54
2023-01-22T22:24:19.370Z,0.54
2023-01-22T22:26:46.783Z,0.54
2023-01-22T22:29:13.707Z,0.54
2023-01-22T22:31:40.710Z,0.55
2023-01-22T22:34:07.659Z,0.55
2023-01-22T22:36:34.869Z,0.57
2023-01-22T22:39:02.683Z,0.57
2023-01-22T22:41:32.980Z,0.56
2023-01-22T22:44:00.218Z,0.57
2023-01-22T22:46:30.389Z,0.56
2023-01-22T22:49:00.151Z,0.58
2023-01-22T22:51:31.914Z,0.57
2023-01-22T22:54:06.302Z,0.58
2023-01-22T22:56:33.683Z,0.58
2023-01-22T22:59:01.233Z,0.58
2023-01-22T23:01:31.120Z,0.58
2023-01-22T23:03:58.226Z,0.58
2023-01-22T23:06:29.985Z,0.58
2023-01-22T23:09:12.815Z,0.58
2023-01-22T23:11:40.361Z,0.59
2023-01-22T23:14:07.874Z,0.58
2023-01-22T23:16:43.272Z,0.58
2023-01-22T23:19:18.422Z,0.59
2023-01-22T23:21:51.332Z,0.58
2023-01-22T23:24:18.314Z,0.59
2023-01-22T23:26:46.433Z,0.58
2023-01-22T23:29:20.527Z,0.59
2023-01-22T23:31:48.148Z,0.59
2023-01-22T23:34:19.147Z,0.59
2023-01-22T23:36:47.804Z,0.59
2023-01-22T23:39:18.652Z,0.58
2023-01-22T23:41:45.859Z,0.59
2023-01-22T23:44:12.905Z,0.57
2023-01-22T23:46:40.738Z,0.59
2023-01-22T23:49:07.692Z,0.57
2023-01-22T23:51:34.611Z,0.57
2023-01-22T23:54:01.706Z,0.57
2023-01-22T23:56:31.626Z,0.56
2023-01-22T23:58:59.910Z,0.56
